createdAt,value
2023-05-05T00:00:58.757Z,42.43
2023-05-05T00:03:26.172Z,41.68
2023-05-05T00:05:57.639Z,42.06
2023-05-05T00:08:24.975Z,42.02
2023-05-05T00:10:53.172Z,42.01
2023-05-05T00:13:21.116Z,41.72
2023-05-05T00:15:50.483Z,41.75
2023-05-05T00:18:18.557Z,41.74
2023-05-05T00:20:47.767Z,41.94
2023-05-05T00:23:15.558Z,42.05
2023-05-05T00:25:42.383Z,41.63
2023-05-05T00:28:09.261Z,42.30
2023-05-05T00:30:37.557Z,42.22
2023-05-05T00:33:04.428Z,42.22
2023-05-05T00:35:31.361Z,41.85
2023-05-05T00:37:58.424Z,42.06
2023-05-05T00:40:25.577Z,42.20
2023-05-05T00:42:52.595Z,41.89
2023-05-05T00:45:20.234Z,42.06
2023-05-05T00:47:49.870Z,42.07
2023-05-05T00:50:27.751Z,42.05
2023-05-05T00:52:59.022Z,42.05
2023-05-05T00:55:26.313Z,42.10
2023-05-05T00:57:53.620Z,42.09
2023-05-05T01:00:20.543Z,41.69
2023-05-05T01:02:47.368Z,42.24
2023-05-05T01:05:16.491Z,41.68
2023-05-05T01:07:43.478Z,42.14
2023-05-05T01:10:31.832Z,41.74
2023-05-05T01:13:22.688Z,41.73
2023-05-05T01:16:01.570Z,41.85
2023-05-05T01:18:56.687Z,42.05
2023-05-05T01:21:32.973Z,42.07
2023-05-05T01:24:17.427Z,41.75
2023-05-05T01:26:55.700Z,42.24
2023-05-05T01:29:31.470Z,41.74
2023-05-05T01:32:04.389Z,41.75
2023-05-05T01:34:37.326Z,42.30
2023-05-05T01:37:23.069Z,42.44
2023-05-05T01:39:52.994Z,41.62
2023-05-05T01:42:22.532Z,41.79
2023-05-05T01:44:50.281Z,41.82
2023-05-05T01:47:19.655Z,41.72
2023-05-05T01:49:47.974Z,41.80
2023-05-05T01:52:16.372Z,42.42
2023-05-05T01:54:45.333Z,42.32
2023-05-05T01:57:14.769Z,42.26
2023-05-05T01:59:41.558Z,42.00
2023-05-05T02:02:12.030Z,42.03
2023-05-05T02:04:42.310Z,42.04
2023-05-05T02:07:12.815Z,41.62
2023-05-05T02:09:40.972Z,41.69
2023-05-05T02:12:08.860Z,42.43
2023-05-05T02:14:37.281Z,41.69
2023-05-05T02:17:04.575Z,42.01
2023-05-05T02:19:36.515Z,42.29
2023-05-05T02:22:03.442Z,42.08
2023-05-05T02:24:31.071Z,42.32
2023-05-05T02:26:59.667Z,42.12
2023-05-05T02:29:34.363Z,42.18
2023-05-05T02:32:09.845Z,42.05
2023-05-05T02:34:40.430Z,42.24
2023-05-05T02:37:11.325Z,41.88
2023-05-05T02:39:59.240Z,41.69
2023-05-05T02:42:30.203Z,41.42
2023-05-05T02:45:01.649Z,42.10
2023-05-05T02:47:35.487Z,41.91
2023-05-05T02:50:03.757Z,41.40
2023-05-05T02:52:30.596Z,41.91
2023-05-05T02:54:57.517Z,41.77
2023-05-05T02:57:35.915Z,41.89
2023-05-05T03:00:10.425Z,42.21
2023-05-05T03:03:02.780Z,41.51
2023-05-05T03:05:41.603Z,42.18
2023-05-05T03:08:17.076Z,41.62
2023-05-05T03:10:53.506Z,41.90
2023-05-05T03:13:20.911Z,41.90
2023-05-05T03:15:51.664Z,42.13
2023-05-05T03:18:20.196Z,41.98
2023-05-05T03:20:47.636Z,41.89
2023-05-05T03:23:14.788Z,41.82
2023-05-05T03:25:45.810Z,41.51
2023-05-05T03:28:13.475Z,41.57
2023-05-05T03:30:40.634Z,41.69
2023-05-05T03:33:08.625Z,42.32
2023-05-05T03:35:35.482Z,41.67
2023-05-05T03:38:02.295Z,41.68
2023-05-05T03:40:40.319Z,41.89
2023-05-05T03:43:10.064Z,42.18
2023-05-05T03:45:36.880Z,41.59
2023-05-05T03:48:03.783Z,41.59
2023-05-05T03:50:30.579Z,41.68
2023-05-05T03:52:57.315Z,41.57
2023-05-05T03:55:24.728Z,41.84
2023-05-05T03:57:51.600Z,42.18
2023-05-05T04:00:18.782Z,41.75
2023-05-05T04:02:45.670Z,41.61
2023-05-05T04:05:12.503Z,42.24
2023-05-05T04:07:39.347Z,41.80
2023-05-05T04:10:07.299Z,42.22
2023-05-05T04:12:37.279Z,42.00
2023-05-05T04:15:04.588Z,42.26
2023-05-05T04:17:31.396Z,41.61
2023-05-05T04:19:58.247Z,42.17
2023-05-05T04:22:25.007Z,41.83
2023-05-05T04:24:51.896Z,41.67
2023-05-05T04:27:18.720Z,41.26
2023-05-05T04:29:45.544Z,42.23
2023-05-05T04:32:12.293Z,41.82
2023-05-05T04:34:39.001Z,41.58
2023-05-05T04:37:05.740Z,41.44
2023-05-05T04:39:32.533Z,41.58
2023-05-05T04:41:59.290Z,42.19
2023-05-05T04:44:26.592Z,42.01
2023-05-05T04:46:53.933Z,41.92
2023-05-05T04:49:20.709Z,41.47
2023-05-05T04:51:47.410Z,42.21
2023-05-05T04:54:14.151Z,42.21
2023-05-05T04:56:41.130Z,42.37
2023-05-05T04:59:07.937Z,41.79
2023-05-05T05:01:36.905Z,42.15
2023-05-05T05:04:05.234Z,41.99
2023-05-05T05:06:32.473Z,42.07
2023-05-05T05:08:59.347Z,41.61
2023-05-05T05:11:26.277Z,42.03
2023-05-05T05:13:53.428Z,41.87
2023-05-05T05:16:20.258Z,41.93
2023-05-05T05:18:47.117Z,42.07
2023-05-05T05:21:14.045Z,41.83
2023-05-05T05:23:40.753Z,42.02
2023-05-05T05:26:07.574Z,42.06
2023-05-05T05:28:34.288Z,41.58
2023-05-05T05:31:00.994Z,41.81
2023-05-05T05:33:27.738Z,41.32
2023-05-05T05:35:54.493Z,41.92
2023-05-05T05:38:21.339Z,41.86
2023-05-05T05:40:48.078Z,41.47
2023-05-05T05:43:14.926Z,41.31
2023-05-05T05:45:41.879Z,41.94
2023-05-05T05:48:08.905Z,41.84
2023-05-05T05:50:36.146Z,41.79
2023-05-05T05:53:03.213Z,41.23
2023-05-05T05:55:30.152Z,41.55
2023-05-05T05:57:56.918Z,41.78
2023-05-05T06:00:23.876Z,41.21
2023-05-05T06:02:51.887Z,41.54
2023-05-05T06:05:18.868Z,41.62
2023-05-05T06:07:45.562Z,41.11
2023-05-05T06:10:26.491Z,41.46
2023-05-05T06:12:54.516Z,41.78
2023-05-05T06:15:21.544Z,41.52
2023-05-05T06:17:48.270Z,41.61
2023-05-05T06:20:15.275Z,41.38
2023-05-05T06:22:42.088Z,41.59
2023-05-05T06:25:09.162Z,41.20
2023-05-05T06:27:36.300Z,41.08
2023-05-05T06:30:03.215Z,41.63
2023-05-05T06:32:29.966Z,41.35
2023-05-05T06:34:56.828Z,41.38
2023-05-05T06:37:23.568Z,41.33
2023-05-05T06:39:50.326Z,41.65
2023-05-05T06:42:17.221Z,41.61
2023-05-05T06:44:43.984Z,41.30
2023-05-05T06:47:16.437Z,41.29
2023-05-05T06:49:43.334Z,41.39
2023-05-05T06:52:10.118Z,41.37
2023-05-05T06:54:36.914Z,41.05
2023-05-05T06:57:04.244Z,41.59
2023-05-05T06:59:30.976Z,41.26
2023-05-05T07:01:57.754Z,41.26
2023-05-05T07:04:24.865Z,41.57
2023-05-05T07:06:51.695Z,40.93
2023-05-05T07:09:18.820Z,41.25
2023-05-05T07:11:46.618Z,41.54
2023-05-05T07:14:13.341Z,41.58
2023-05-05T07:16:40.175Z,41.21
2023-05-05T07:19:07.140Z,41.24
2023-05-05T07:21:34.474Z,40.98
2023-05-05T07:24:05.903Z,41.53
2023-05-05T07:26:32.907Z,41.59
2023-05-05T07:28:59.706Z,40.74
2023-05-05T07:31:26.847Z,41.40
2023-05-05T07:33:54.005Z,40.91
2023-05-05T07:36:21.055Z,41.50
2023-05-05T07:38:47.814Z,41.51
2023-05-05T07:41:14.855Z,41.39
2023-05-05T07:43:44.205Z,41.20
2023-05-05T07:46:11.924Z,41.27
2023-05-05T07:48:41.644Z,41.46
2023-05-05T07:51:09.114Z,41.58
2023-05-05T07:53:36.008Z,41.30
2023-05-05T07:56:02.990Z,41.17
2023-05-05T07:58:29.742Z,40.99
2023-05-05T08:00:56.502Z,41.18
2023-05-05T08:03:25.121Z,40.78
2023-05-05T08:05:54.675Z,41.18
2023-05-05T08:08:25.093Z,41.18
2023-05-05T08:10:53.364Z,41.29
2023-05-05T08:13:20.666Z,40.96
2023-05-05T08:15:47.732Z,41.33
2023-05-05T08:18:14.680Z,40.73
2023-05-05T08:20:41.499Z,41.12
2023-05-05T08:23:08.210Z,41.42
2023-05-05T08:25:34.918Z,41.36
2023-05-05T08:28:01.792Z,41.00
2023-05-05T08:30:28.690Z,40.68
2023-05-05T08:32:55.646Z,40.82
2023-05-05T08:35:22.506Z,41.32
2023-05-05T08:37:51.801Z,41.01
2023-05-05T08:40:21.332Z,41.63
2023-05-05T08:42:48.493Z,40.99
2023-05-05T08:45:16.069Z,41.32
2023-05-05T08:47:43.691Z,41.40
2023-05-05T08:50:11.676Z,40.79
2023-05-05T08:52:44.671Z,41.37
2023-05-05T08:55:22.210Z,41.17
2023-05-05T08:57:57.195Z,41.55
2023-05-05T09:00:26.650Z,40.64
2023-05-05T09:02:58.478Z,41.22
2023-05-05T09:05:27.311Z,41.00
2023-05-05T09:07:54.192Z,41.04
2023-05-05T09:10:21.159Z,41.15
2023-05-05T09:12:50.308Z,41.15
2023-05-05T09:15:17.318Z,40.82
2023-05-05T09:17:44.378Z,40.70
2023-05-05T09:20:15.047Z,40.83
2023-05-05T09:22:43.802Z,41.01
2023-05-05T09:25:12.575Z,41.04
2023-05-05T09:27:41.975Z,41.35
2023-05-05T09:30:11.193Z,40.82
2023-05-05T09:32:46.528Z,41.01
2023-05-05T09:35:13.685Z,41.00
2023-05-05T09:37:40.452Z,41.03
2023-05-05T09:40:09.390Z,40.76
2023-05-05T09:42:40.189Z,41.00
2023-05-05T09:45:19.015Z,40.82
2023-05-05T09:47:49.407Z,41.35
2023-05-05T09:50:19.178Z,40.76
2023-05-05T09:53:06.722Z,40.95
2023-05-05T09:55:33.597Z,41.42
2023-05-05T09:58:20.282Z,41.29
2023-05-05T10:00:49.449Z,40.68
2023-05-05T10:03:16.907Z,41.08
2023-05-05T10:05:52.741Z,40.90
2023-05-05T10:08:21.402Z,41.18
2023-05-05T10:11:00.739Z,40.65
2023-05-05T10:13:28.261Z,40.75
2023-05-05T10:15:56.764Z,41.21
2023-05-05T10:18:28.787Z,40.83
2023-05-05T10:21:14.609Z,40.38
2023-05-05T10:24:09.627Z,40.71
2023-05-05T10:26:42.091Z,41.05
2023-05-05T10:29:17.977Z,41.06
2023-05-05T10:31:54.467Z,40.91
2023-05-05T10:34:27.363Z,40.35
2023-05-05T10:36:55.364Z,40.96
2023-05-05T10:39:23.999Z,40.67
2023-05-05T10:41:52.443Z,40.71
2023-05-05T10:44:35.915Z,40.95
2023-05-05T10:47:03.966Z,40.65
2023-05-05T10:49:53.265Z,40.78
2023-05-05T10:52:28.212Z,40.75
2023-05-05T10:55:01.954Z,41.06
2023-05-05T10:57:32.411Z,40.51
2023-05-05T10:59:59.221Z,40.68
2023-05-05T11:02:28.823Z,40.71
2023-05-05T11:05:09.627Z,40.83
2023-05-05T11:07:38.052Z,40.60
2023-05-05T11:10:06.920Z,40.86
2023-05-05T11:13:02.162Z,41.20
2023-05-05T11:15:29.378Z,40.76
2023-05-05T11:18:01.515Z,40.84
2023-05-05T11:20:43.688Z,40.62
2023-05-05T11:23:10.456Z,40.52
2023-05-05T11:25:38.139Z,40.51
2023-05-05T11:28:14.948Z,40.78
2023-05-05T11:30:57.928Z,41.15
2023-05-05T11:33:39.182Z,40.90
2023-05-05T11:36:09.721Z,40.25
2023-05-05T11:38:36.422Z,40.54
2023-05-05T11:41:18.625Z,41.22
2023-05-05T11:43:45.488Z,40.78
2023-05-05T11:46:17.102Z,40.60
2023-05-05T11:48:47.930Z,40.63
2023-05-05T11:51:16.354Z,40.55
2023-05-05T11:53:44.458Z,39.88
2023-05-05T11:56:12.451Z,40.23
2023-05-05T11:58:39.314Z,40.33
2023-05-05T12:01:07.707Z,40.41
2023-05-05T12:03:36.563Z,40.28
2023-05-05T12:06:04.927Z,40.22
2023-05-05T12:08:41.737Z,40.16
2023-05-05T12:11:10.547Z,39.98
2023-05-05T12:13:37.572Z,40.40
2023-05-05T12:16:10.536Z,40.06
2023-05-05T12:18:37.560Z,40.75
2023-05-05T12:21:20.036Z,40.91
2023-05-05T12:23:46.985Z,40.27
2023-05-05T12:26:29.288Z,40.17
2023-05-05T12:28:57.484Z,40.86
2023-05-05T12:31:37.452Z,40.70
2023-05-05T12:34:05.502Z,41.05
2023-05-05T12:36:36.784Z,41.05
2023-05-05T12:39:05.556Z,40.93
2023-05-05T12:41:33.525Z,41.03
2023-05-05T12:44:01.877Z,41.11
2023-05-05T12:46:29.868Z,41.48
2023-05-05T12:49:05.578Z,41.77
2023-05-05T12:51:36.961Z,41.93
2023-05-05T12:54:11.230Z,41.67
2023-05-05T12:56:48.234Z,41.13
2023-05-05T12:59:24.241Z,41.47
2023-05-05T13:01:55.888Z,41.44
2023-05-05T13:04:24.415Z,41.05
2023-05-05T13:07:10.217Z,40.94
2023-05-05T13:09:37.040Z,40.89
2023-05-05T13:12:04.611Z,40.64
2023-05-05T13:14:35.214Z,40.99
2023-05-05T13:17:02.211Z,40.82
2023-05-05T13:19:29.212Z,40.70
2023-05-05T13:21:57.159Z,40.70
2023-05-05T13:24:38.160Z,40.47
2023-05-05T13:27:12.005Z,40.99
2023-05-05T13:29:39.292Z,40.76
2023-05-05T13:32:06.166Z,40.75
2023-05-05T13:34:33.052Z,40.56
2023-05-05T13:36:59.883Z,41.35
2023-05-05T13:39:26.771Z,40.75
2023-05-05T13:41:53.902Z,41.19
2023-05-05T13:44:20.864Z,40.98
2023-05-05T13:46:48.012Z,41.10
2023-05-05T13:49:14.872Z,41.10
2023-05-05T13:51:42.196Z,40.27
2023-05-05T13:54:09.934Z,40.83
2023-05-05T13:56:36.906Z,41.02
2023-05-05T13:59:03.967Z,40.66
2023-05-05T14:01:30.887Z,40.34
2023-05-05T14:03:58.096Z,40.50
2023-05-05T14:06:25.362Z,40.83
2023-05-05T14:08:52.308Z,40.29
2023-05-05T14:11:20.951Z,40.29
2023-05-05T14:13:48.330Z,40.39
2023-05-05T14:16:15.697Z,40.45
2023-05-05T14:18:42.706Z,40.57
2023-05-05T14:21:10.032Z,40.50
2023-05-05T14:23:36.843Z,40.77
2023-05-05T14:26:03.836Z,40.77
2023-05-05T14:28:30.937Z,41.77
2023-05-05T14:30:57.899Z,41.35
2023-05-05T14:33:24.738Z,41.60
2023-05-05T14:35:51.603Z,41.50
2023-05-05T14:38:18.537Z,41.03
2023-05-05T14:40:45.361Z,41.38
2023-05-05T14:43:12.100Z,41.52
2023-05-05T14:45:38.862Z,41.31
2023-05-05T14:48:05.773Z,41.33
2023-05-05T14:50:32.712Z,40.83
2023-05-05T14:52:59.437Z,41.33
2023-05-05T14:55:26.687Z,41.38
2023-05-05T14:57:53.463Z,41.13
2023-05-05T15:00:20.707Z,41.61
2023-05-05T15:02:48.640Z,41.90
2023-05-05T15:05:15.756Z,41.93
2023-05-05T15:07:44.656Z,41.95
2023-05-05T15:10:12.088Z,42.08
2023-05-05T15:12:39.448Z,42.38
2023-05-05T15:15:08.862Z,42.54
2023-05-05T15:17:37.719Z,42.35
2023-05-05T15:20:07.877Z,42.17
2023-05-05T15:22:34.963Z,42.69
2023-05-05T15:25:01.834Z,42.60
2023-05-05T15:27:28.741Z,42.16
2023-05-05T15:29:55.649Z,42.57
2023-05-05T15:32:22.492Z,42.58
2023-05-05T15:34:50.447Z,41.78
2023-05-05T15:37:17.453Z,42.55
2023-05-05T15:39:44.395Z,42.57
2023-05-05T15:42:11.267Z,42.37
2023-05-05T15:44:38.400Z,42.29
2023-05-05T15:47:06.476Z,42.22
2023-05-05T15:49:33.256Z,42.37
2023-05-05T15:51:59.995Z,41.84
2023-05-05T15:54:26.888Z,42.16
2023-05-05T15:56:53.728Z,43.02
2023-05-05T15:59:20.823Z,42.58
2023-05-05T16:01:47.684Z,42.08
2023-05-05T16:04:14.740Z,42.33
2023-05-05T16:06:41.600Z,42.84
2023-05-05T16:09:08.977Z,42.29
2023-05-05T16:11:37.482Z,43.03
2023-05-05T16:14:04.352Z,42.81
2023-05-05T16:16:31.405Z,43.09
2023-05-05T16:18:58.385Z,43.19
2023-05-05T16:21:25.827Z,43.00
2023-05-05T16:23:52.610Z,42.97
2023-05-05T16:26:19.507Z,43.28
2023-05-05T16:28:46.319Z,43.34
2023-05-05T16:31:13.784Z,42.67
2023-05-05T16:33:41.469Z,42.98
2023-05-05T16:36:12.541Z,42.79
2023-05-05T16:38:40.810Z,43.34
2023-05-05T16:41:08.418Z,43.05
2023-05-05T16:43:39.892Z,43.28
2023-05-05T16:46:06.876Z,43.13
2023-05-05T16:48:33.868Z,42.91
2023-05-05T16:51:00.767Z,43.61
2023-05-05T16:53:27.617Z,42.81
2023-05-05T16:55:54.498Z,42.96
2023-05-05T16:58:23.193Z,43.30
2023-05-05T17:00:50.670Z,43.21
2023-05-05T17:03:18.399Z,43.40
2023-05-05T17:05:48.995Z,43.74
2023-05-05T17:08:16.777Z,43.19
2023-05-05T17:10:45.182Z,43.30
2023-05-05T17:13:14.108Z,43.19
2023-05-05T17:15:41.747Z,43.74
2023-05-05T17:18:08.971Z,43.34
2023-05-05T17:20:36.571Z,43.35
2023-05-05T17:23:03.607Z,43.76
2023-05-05T17:25:30.821Z,43.38
2023-05-05T17:27:58.488Z,43.17
2023-05-05T17:30:26.010Z,43.35
2023-05-05T17:32:52.890Z,43.26
2023-05-05T17:35:20.076Z,43.52
2023-05-05T17:37:47.007Z,43.03
2023-05-05T17:40:13.977Z,43.27
2023-05-05T17:42:40.817Z,43.37
2023-05-05T17:45:08.597Z,43.17
2023-05-05T17:47:36.372Z,43.36
2023-05-05T17:50:03.461Z,43.39
2023-05-05T17:52:30.243Z,43.15
2023-05-05T17:54:57.202Z,43.14
2023-05-05T17:57:24.067Z,43.40
2023-05-05T17:59:52.177Z,43.31
2023-05-05T18:02:19.520Z,43.58
2023-05-05T18:04:46.703Z,43.60
2023-05-05T18:07:14.906Z,43.60
2023-05-05T18:09:42.404Z,43.73
2023-05-05T18:12:09.372Z,43.60
2023-05-05T18:14:36.572Z,43.34
2023-05-05T18:17:03.713Z,43.58
2023-05-05T18:19:30.786Z,43.24
2023-05-05T18:22:00.739Z,43.54
2023-05-05T18:24:28.320Z,43.69
2023-05-05T18:26:55.130Z,43.89
2023-05-05T18:29:22.529Z,43.50
2023-05-05T18:31:53.204Z,43.80
2023-05-05T18:34:21.104Z,43.74
2023-05-05T18:36:51.022Z,44.34
2023-05-05T18:39:18.153Z,44.30
2023-05-05T18:41:45.005Z,43.77
2023-05-05T18:44:11.881Z,43.58
2023-05-05T18:46:38.801Z,43.54
2023-05-05T18:49:05.726Z,43.89
2023-05-05T18:51:32.556Z,44.13
2023-05-05T18:54:01.059Z,43.88
2023-05-05T18:56:27.987Z,43.46
2023-05-05T18:58:54.868Z,44.08
2023-05-05T19:01:21.782Z,43.87
2023-05-05T19:03:48.670Z,43.82
2023-05-05T19:06:16.487Z,44.08
2023-05-05T19:08:44.323Z,44.38
2023-05-05T19:11:11.630Z,44.19
2023-05-05T19:13:39.901Z,44.07
2023-05-05T19:16:07.376Z,44.23
2023-05-05T19:18:34.495Z,44.62
2023-05-05T19:21:01.893Z,44.22
2023-05-05T19:23:28.701Z,43.99
2023-05-05T19:25:55.667Z,44.18
2023-05-05T19:28:22.428Z,44.38
2023-05-05T19:30:49.245Z,44.65
2023-05-05T19:33:16.394Z,45.09
2023-05-05T19:35:44.146Z,45.02
2023-05-05T19:38:11.186Z,46.01
2023-05-05T19:40:38.770Z,46.42
2023-05-05T19:43:05.858Z,47.51
2023-05-05T19:45:33.924Z,46.92
2023-05-05T19:48:01.781Z,48.37
2023-05-05T19:50:30.521Z,47.73
2023-05-05T19:52:57.964Z,47.44
2023-05-05T19:55:24.770Z,47.75
2023-05-05T19:57:51.899Z,47.40
2023-05-05T20:00:19.880Z,47.55
2023-05-05T20:02:48.751Z,48.04
2023-05-05T20:05:17.797Z,48.13
2023-05-05T20:07:46.531Z,48.57
2023-05-05T20:10:13.948Z,48.96
2023-05-05T20:12:48.189Z,48.53
2023-05-05T20:15:18.964Z,48.23
2023-05-05T20:17:47.085Z,47.86
2023-05-05T20:20:19.178Z,47.56
2023-05-05T20:22:58.349Z,47.36
2023-05-05T20:25:25.065Z,47.32
2023-05-05T20:27:51.879Z,47.49
2023-05-05T20:30:18.644Z,46.83
2023-05-05T20:32:45.502Z,46.61
2023-05-05T20:35:13.046Z,46.36
2023-05-05T20:37:39.956Z,46.47
2023-05-05T20:40:07.940Z,46.52
2023-05-05T20:42:35.075Z,45.86
2023-05-05T20:45:02.472Z,45.59
2023-05-05T20:47:29.317Z,45.95
2023-05-05T20:49:56.404Z,46.16
2023-05-05T20:52:23.285Z,46.21
2023-05-05T20:54:50.007Z,46.32
2023-05-05T20:57:16.841Z,45.87
2023-05-05T20:59:43.689Z,45.83
2023-05-05T21:02:10.530Z,45.90
2023-05-05T21:04:37.546Z,45.84
2023-05-05T21:07:04.500Z,46.15
2023-05-05T21:09:31.824Z,46.03
2023-05-05T21:11:59.154Z,45.61
2023-05-05T21:14:25.992Z,45.45
2023-05-05T21:16:52.930Z,45.76
2023-05-05T21:19:19.720Z,45.89
2023-05-05T21:21:46.495Z,46.19
2023-05-05T21:24:13.275Z,45.78
2023-05-05T21:26:44.652Z,45.54
2023-05-05T21:29:12.072Z,45.96
2023-05-05T21:31:41.896Z,46.08
2023-05-05T21:34:08.700Z,45.92
2023-05-05T21:36:36.550Z,45.76
2023-05-05T21:39:03.408Z,45.77
2023-05-05T21:41:30.492Z,45.85
2023-05-05T21:43:58.228Z,46.08
2023-05-05T21:46:25.048Z,45.31
2023-05-05T21:48:51.885Z,45.69
2023-05-05T21:51:19.783Z,46.16
2023-05-05T21:53:46.493Z,46.28
2023-05-05T21:56:13.333Z,46.29
2023-05-05T21:58:41.302Z,45.83
2023-05-05T22:01:08.164Z,45.74
2023-05-05T22:03:35.656Z,45.82
2023-05-05T22:06:02.886Z,46.20
2023-05-05T22:08:29.718Z,45.47
2023-05-05T22:10:56.448Z,45.35
2023-05-05T22:13:23.333Z,45.41
2023-05-05T22:15:50.454Z,45.79
2023-05-05T22:18:17.331Z,45.39
2023-05-05T22:20:44.173Z,45.24
2023-05-05T22:23:10.910Z,45.76
2023-05-05T22:25:37.690Z,45.40
2023-05-05T22:28:04.734Z,45.45
2023-05-05T22:30:31.574Z,45.28
2023-05-05T22:32:58.367Z,45.79
2023-05-05T22:35:25.249Z,45.29
2023-05-05T22:37:51.969Z,45.53
2023-05-05T22:40:18.778Z,45.24
2023-05-05T22:42:45.604Z,45.43
2023-05-05T22:45:13.381Z,45.52
2023-05-05T22:47:40.145Z,45.33
2023-05-05T22:50:08.157Z,45.74
2023-05-05T22:52:35.084Z,45.46
2023-05-05T22:55:01.976Z,45.74
2023-05-05T22:57:28.744Z,45.41
2023-05-05T22:59:55.606Z,45.37
2023-05-05T23:02:22.905Z,45.48
2023-05-05T23:04:50.069Z,45.25
2023-05-05T23:07:16.844Z,45.74
2023-05-05T23:09:43.560Z,45.62
2023-05-05T23:12:10.438Z,45.32
2023-05-05T23:14:37.263Z,46.02
2023-05-05T23:17:04.250Z,45.10
2023-05-05T23:19:32.757Z,45.99
2023-05-05T23:21:59.944Z,45.39
2023-05-05T23:24:27.995Z,45.70
2023-05-05T23:26:56.381Z,45.66
2023-05-05T23:29:23.113Z,45.86
2023-05-05T23:31:49.887Z,45.54
2023-05-05T23:34:16.774Z,45.55
2023-05-05T23:36:43.602Z,45.50
2023-05-05T23:39:10.472Z,45.96
2023-05-05T23:41:37.454Z,45.66
2023-05-05T23:44:04.395Z,45.89
2023-05-05T23:46:31.275Z,45.62
2023-05-05T23:48:57.983Z,45.48
2023-05-05T23:51:24.844Z,45.83
2023-05-05T23:53:51.803Z,45.95
2023-05-05T23:56:18.694Z,45.59
2023-05-05T23:58:45.419Z,45.58
